createdAt,value
2023-05-13T00:00:06.728Z,80.80
2023-05-13T00:02:11.894Z,80.77
2023-05-13T00:04:19.971Z,80.23
2023-05-13T00:06:27.629Z,79.77
2023-05-13T00:08:33.104Z,79.36
2023-05-13T00:10:39.160Z,79.29
2023-05-13T00:12:44.196Z,78.79
2023-05-13T00:14:49.180Z,78.28
2023-05-13T00:16:54.097Z,77.15
2023-05-13T00:19:01.786Z,76.18
2023-05-13T00:21:07.098Z,75.32
2023-05-13T00:23:14.810Z,74.43
2023-05-13T00:25:21.838Z,73.64
2023-05-13T00:27:26.757Z,73.34
2023-05-13T00:29:31.700Z,72.49
2023-05-13T00:31:36.900Z,71.89
2023-05-13T00:33:41.822Z,72.18
2023-05-13T00:35:46.808Z,71.62
2023-05-13T00:37:52.353Z,71.14
2023-05-13T00:40:00.609Z,71.28
2023-05-13T00:42:06.512Z,69.37
2023-05-13T00:44:13.890Z,69.37
2023-05-13T00:46:19.727Z,68.40
2023-05-13T00:48:26.952Z,68.33
2023-05-13T00:50:32.068Z,68.27
2023-05-13T00:52:37.845Z,69.26
2023-05-13T00:54:42.734Z,68.24
2023-05-13T00:56:54.940Z,69.36
2023-05-13T00:59:00.000Z,69.70
2023-05-13T01:01:14.790Z,69.16
2023-05-13T01:03:27.916Z,68.96
2023-05-13T01:05:41.670Z,68.25
2023-05-13T01:07:53.587Z,68.22
2023-05-13T01:10:05.324Z,68.54
2023-05-13T01:12:20.649Z,67.72
2023-05-13T01:14:35.386Z,68.28
2023-05-13T01:16:46.657Z,69.22
2023-05-13T01:18:56.183Z,69.02
2023-05-13T01:21:04.145Z,69.39
2023-05-13T01:23:11.815Z,68.98
2023-05-13T01:25:16.755Z,69.30
2023-05-13T01:27:23.810Z,69.10
2023-05-13T01:29:31.509Z,69.76
2023-05-13T01:31:37.010Z,70.60
2023-05-13T01:33:43.672Z,71.44
2023-05-13T01:35:50.102Z,71.65
2023-05-13T01:37:56.055Z,72.11
2023-05-13T01:40:14.288Z,72.61
2023-05-13T01:42:26.556Z,72.56
2023-05-13T01:44:31.651Z,72.94
2023-05-13T01:46:36.680Z,73.41
2023-05-13T01:48:41.696Z,73.75
2023-05-13T01:50:46.896Z,74.04
2023-05-13T01:52:51.747Z,73.99
2023-05-13T01:54:56.967Z,74.29
2023-05-13T01:57:04.616Z,74.92
2023-05-13T01:59:09.483Z,74.16
2023-05-13T02:01:14.517Z,74.64
2023-05-13T02:03:19.636Z,74.63
2023-05-13T02:05:25.238Z,74.91
2023-05-13T02:07:30.279Z,74.63
2023-05-13T02:09:35.196Z,74.56
2023-05-13T02:11:40.068Z,75.06
2023-05-13T02:13:48.586Z,74.22
2023-05-13T02:15:53.711Z,74.79
2023-05-13T02:17:58.970Z,74.84
2023-05-13T02:20:04.689Z,75.24
2023-05-13T02:22:09.676Z,74.95
2023-05-13T02:24:14.671Z,74.79
2023-05-13T02:26:19.552Z,74.79
2023-05-13T02:28:26.736Z,74.66
2023-05-13T02:30:34.671Z,74.43
2023-05-13T02:32:42.995Z,74.26
2023-05-13T02:34:47.975Z,73.29
2023-05-13T02:36:52.924Z,73.29
2023-05-13T02:38:57.768Z,73.31
2023-05-13T02:41:03.184Z,73.73
2023-05-13T02:43:08.244Z,73.76
2023-05-13T02:45:14.271Z,74.26
2023-05-13T02:47:23.018Z,73.74
2023-05-13T02:49:27.878Z,73.59
2023-05-13T02:51:35.661Z,73.65
2023-05-13T02:53:42.766Z,73.48
2023-05-13T02:55:50.284Z,73.48
2023-05-13T02:57:57.131Z,73.70
2023-05-13T03:00:02.432Z,73.52
2023-05-13T03:02:07.637Z,73.39
2023-05-13T03:04:15.324Z,73.54
2023-05-13T03:06:20.314Z,73.29
2023-05-13T03:08:25.464Z,73.57
2023-05-13T03:10:31.305Z,73.08
2023-05-13T03:12:36.705Z,73.64
2023-05-13T03:14:43.163Z,73.48
2023-05-13T03:16:48.571Z,74.02
2023-05-13T03:18:53.501Z,73.08
2023-05-13T03:21:01.616Z,72.83
2023-05-13T03:23:06.928Z,72.74
2023-05-13T03:25:12.143Z,72.43
2023-05-13T03:27:17.695Z,72.17
2023-05-13T03:29:23.006Z,72.37
2023-05-13T03:31:32.420Z,72.54
2023-05-13T03:33:38.036Z,72.72
2023-05-13T03:35:42.999Z,72.40
2023-05-13T03:37:51.268Z,72.81
2023-05-13T03:39:56.443Z,73.20
2023-05-13T03:42:01.766Z,73.29
2023-05-13T03:44:06.818Z,73.49
2023-05-13T03:46:11.811Z,74.02
2023-05-13T03:48:16.777Z,74.04
2023-05-13T03:50:24.220Z,73.61
2023-05-13T03:52:33.475Z,73.59
2023-05-13T03:54:41.309Z,74.20
2023-05-13T03:56:46.458Z,73.27
2023-05-13T03:58:51.788Z,74.24
2023-05-13T04:00:57.016Z,74.28
2023-05-13T04:03:02.059Z,74.61
2023-05-13T04:05:09.839Z,74.72
2023-05-13T04:07:14.707Z,74.96
2023-05-13T04:09:19.704Z,75.43
2023-05-13T04:11:27.189Z,75.79
2023-05-13T04:13:32.187Z,75.50
2023-05-13T04:15:37.607Z,76.01
2023-05-13T04:17:42.592Z,76.10
2023-05-13T04:19:47.553Z,75.99
2023-05-13T04:21:52.417Z,76.43
2023-05-13T04:23:57.444Z,76.32
2023-05-13T04:26:02.425Z,77.18
2023-05-13T04:28:10.217Z,77.00
2023-05-13T04:30:15.399Z,77.27
2023-05-13T04:32:22.243Z,77.48
2023-05-13T04:34:27.317Z,77.61
2023-05-13T04:36:32.504Z,77.39
2023-05-13T04:38:38.708Z,77.72
2023-05-13T04:40:43.638Z,78.61
2023-05-13T04:42:55.253Z,78.64
2023-05-13T04:45:03.125Z,79.01
2023-05-13T04:47:08.622Z,78.81
2023-05-13T04:49:13.490Z,78.65
2023-05-13T04:51:19.284Z,78.67
2023-05-13T04:53:25.843Z,79.33
2023-05-13T04:55:31.568Z,79.28
2023-05-13T04:57:39.475Z,79.65
2023-05-13T04:59:44.369Z,79.57
2023-05-13T05:01:55.171Z,80.00
2023-05-13T05:04:02.013Z,79.96
2023-05-13T05:06:07.076Z,79.79
2023-05-13T05:08:11.894Z,79.65
2023-05-13T05:10:19.816Z,78.77
2023-05-13T05:12:25.240Z,78.54
2023-05-13T05:14:30.269Z,78.38
2023-05-13T05:16:35.304Z,77.85
2023-05-13T05:18:43.854Z,78.02
2023-05-13T05:20:49.073Z,77.53
2023-05-13T05:22:55.632Z,77.00
2023-05-13T05:25:00.530Z,76.72
2023-05-13T05:27:05.457Z,76.28
2023-05-13T05:29:10.464Z,75.70
2023-05-13T05:31:15.624Z,75.48
2023-05-13T05:33:26.322Z,74.39
2023-05-13T05:35:37.337Z,74.76
2023-05-13T05:37:42.288Z,74.60
2023-05-13T05:39:47.231Z,73.99
2023-05-13T05:41:52.323Z,73.83
2023-05-13T05:43:57.285Z,73.19
2023-05-13T05:46:02.128Z,73.27
2023-05-13T05:48:07.755Z,72.73
2023-05-13T05:50:13.406Z,72.16
2023-05-13T05:52:25.839Z,71.59
2023-05-13T05:54:31.898Z,71.10
2023-05-13T05:56:37.220Z,70.54
2023-05-13T05:58:42.229Z,70.54
2023-05-13T06:00:47.589Z,70.29
2023-05-13T06:02:52.605Z,70.20
2023-05-13T06:04:57.540Z,68.56
2023-05-13T06:07:02.576Z,68.31
2023-05-13T06:09:10.268Z,68.28
2023-05-13T06:11:15.118Z,67.35
2023-05-13T06:13:20.062Z,66.70
2023-05-13T06:15:25.260Z,66.36
2023-05-13T06:17:31.145Z,66.54
2023-05-13T06:19:36.388Z,65.11
2023-05-13T06:21:43.310Z,64.86
2023-05-13T06:23:48.407Z,64.99
2023-05-13T06:25:59.057Z,64.43
2023-05-13T06:28:04.277Z,64.73
2023-05-13T06:30:11.019Z,64.82
2023-05-13T06:32:16.149Z,64.40
2023-05-13T06:34:23.857Z,63.81
2023-05-13T06:36:32.571Z,63.99
2023-05-13T06:38:38.234Z,63.84
2023-05-13T06:40:43.530Z,63.46
2023-05-13T06:42:51.505Z,62.48
2023-05-13T06:44:56.496Z,62.71
2023-05-13T06:47:03.119Z,62.20
2023-05-13T06:49:08.437Z,61.79
2023-05-13T06:51:13.825Z,62.32
2023-05-13T06:53:18.863Z,61.03
2023-05-13T06:55:23.683Z,61.37
2023-05-13T06:57:41.780Z,60.70
2023-05-13T06:59:50.507Z,60.48
2023-05-13T07:01:55.493Z,59.81
2023-05-13T07:04:01.394Z,59.38
2023-05-13T07:06:06.260Z,58.10
2023-05-13T07:08:11.351Z,58.20
2023-05-13T07:10:16.334Z,58.70
2023-05-13T07:12:24.988Z,57.56
2023-05-13T07:14:30.080Z,57.79
2023-05-13T07:16:40.357Z,58.08
2023-05-13T07:18:45.637Z,56.70
2023-05-13T07:20:50.544Z,55.78
2023-05-13T07:22:55.792Z,57.40
2023-05-13T07:25:00.722Z,55.97
2023-05-13T07:27:06.750Z,55.34
2023-05-13T07:29:11.800Z,53.99
2023-05-13T07:31:18.645Z,54.77
2023-05-13T07:33:28.701Z,54.53
2023-05-13T07:35:34.219Z,52.60
2023-05-13T07:37:40.038Z,53.08
2023-05-13T07:39:45.090Z,52.76
2023-05-13T07:41:50.362Z,52.09
2023-05-13T07:43:55.175Z,52.37
2023-05-13T07:46:00.004Z,52.25
2023-05-13T07:48:05.893Z,51.37
2023-05-13T07:50:13.858Z,51.21
2023-05-13T07:52:19.460Z,51.33
2023-05-13T07:54:26.619Z,50.79
2023-05-13T07:56:32.377Z,50.88
2023-05-13T07:58:40.046Z,50.43
2023-05-13T08:00:45.016Z,50.86
2023-05-13T08:02:50.023Z,50.71
2023-05-13T08:04:55.069Z,50.32
2023-05-13T08:07:04.365Z,50.16
2023-05-13T08:09:12.388Z,49.22
2023-05-13T08:11:17.558Z,48.96
2023-05-13T08:13:22.429Z,48.73
2023-05-13T08:15:27.419Z,48.63
2023-05-13T08:17:32.894Z,47.24
2023-05-13T08:19:38.914Z,48.30
2023-05-13T08:21:44.010Z,47.84
2023-05-13T08:23:53.126Z,47.70
2023-05-13T08:25:58.779Z,46.95
2023-05-13T08:28:05.146Z,47.96
2023-05-13T08:30:11.591Z,47.17
2023-05-13T08:32:16.522Z,45.56
2023-05-13T08:34:26.657Z,46.14
2023-05-13T08:36:31.548Z,45.92
2023-05-13T08:38:38.066Z,46.36
2023-05-13T08:40:45.977Z,46.11
2023-05-13T08:42:53.723Z,45.13
2023-05-13T08:44:59.094Z,45.56
2023-05-13T08:47:12.547Z,45.26
2023-05-13T08:49:17.656Z,46.06
2023-05-13T08:51:22.612Z,44.58
2023-05-13T08:53:35.214Z,43.72
2023-05-13T08:55:41.964Z,44.26
2023-05-13T08:57:49.489Z,44.40
2023-05-13T08:59:54.394Z,43.96
2023-05-13T09:02:03.631Z,44.24
2023-05-13T09:04:11.973Z,43.97
2023-05-13T09:06:17.420Z,43.77
2023-05-13T09:08:22.199Z,43.62
2023-05-13T09:10:27.247Z,43.71
2023-05-13T09:12:52.956Z,43.84
2023-05-13T09:14:57.949Z,43.50
2023-05-13T09:17:05.008Z,43.62
2023-05-13T09:19:11.633Z,42.61
2023-05-13T09:21:27.010Z,42.43
2023-05-13T09:23:32.881Z,42.71
2023-05-13T09:25:40.003Z,43.16
2023-05-13T09:27:49.238Z,43.44
2023-05-13T09:30:05.166Z,42.71
2023-05-13T09:32:13.011Z,42.05
2023-05-13T09:34:18.195Z,42.09
2023-05-13T09:36:23.342Z,41.95
2023-05-13T09:38:35.779Z,41.69
2023-05-13T09:40:42.715Z,40.51
2023-05-13T09:42:49.736Z,40.23
2023-05-13T09:44:54.883Z,40.54
2023-05-13T09:47:02.771Z,40.85
2023-05-13T09:49:08.404Z,41.61
2023-05-13T09:51:13.454Z,41.53
2023-05-13T09:53:18.641Z,40.29
2023-05-13T09:55:25.998Z,40.40
2023-05-13T09:57:31.472Z,40.40
2023-05-13T09:59:39.780Z,40.11
2023-05-13T10:01:45.695Z,40.46
2023-05-13T10:03:53.374Z,39.54
2023-05-13T10:06:02.246Z,40.29
2023-05-13T10:08:11.194Z,40.90
2023-05-13T10:10:16.505Z,40.38
2023-05-13T10:12:23.794Z,39.72
2023-05-13T10:14:32.111Z,40.40
2023-05-13T10:16:37.625Z,38.71
2023-05-13T10:18:43.031Z,39.30
2023-05-13T10:20:55.595Z,37.96
2023-05-13T10:23:01.046Z,37.89
2023-05-13T10:25:08.164Z,39.09
2023-05-13T10:27:15.201Z,38.90
2023-05-13T10:29:21.356Z,39.66
2023-05-13T10:31:27.222Z,39.92
2023-05-13T10:33:34.388Z,39.41
2023-05-13T10:35:42.928Z,40.10
2023-05-13T10:38:10.878Z,38.09
2023-05-13T10:40:52.015Z,38.25
2023-05-13T10:43:13.392Z,37.24
2023-05-13T10:45:20.005Z,37.60
2023-05-13T10:47:25.138Z,36.93
2023-05-13T10:49:36.914Z,37.23
2023-05-13T10:51:49.486Z,37.70
2023-05-13T10:53:59.272Z,36.62
2023-05-13T10:56:08.113Z,37.82
2023-05-13T10:58:15.057Z,37.57
2023-05-13T11:00:21.675Z,36.99
2023-05-13T11:02:27.228Z,38.42
2023-05-13T11:04:35.088Z,38.45
2023-05-13T11:06:41.547Z,38.18
2023-05-13T11:08:48.403Z,37.32
2023-05-13T11:11:01.157Z,38.44
2023-05-13T11:13:25.086Z,37.46
2023-05-13T11:15:46.786Z,37.61
2023-05-13T11:17:58.477Z,38.15
2023-05-13T11:20:03.640Z,38.15
2023-05-13T11:22:12.674Z,39.21
2023-05-13T11:24:24.734Z,39.21
2023-05-13T11:26:49.653Z,38.64
2023-05-13T11:29:03.566Z,37.38
2023-05-13T11:31:20.334Z,38.52
2023-05-13T11:33:28.491Z,37.71
2023-05-13T11:35:34.851Z,40.17
2023-05-13T11:37:45.837Z,36.94
2023-05-13T11:39:50.982Z,35.99
2023-05-13T11:42:01.895Z,36.79
2023-05-13T11:44:08.627Z,36.25
2023-05-13T11:46:14.684Z,35.73
2023-05-13T11:48:23.971Z,35.88
2023-05-13T11:50:32.542Z,35.34
2023-05-13T11:52:37.745Z,36.33
2023-05-13T11:54:51.489Z,37.11
2023-05-13T11:57:01.094Z,39.68
2023-05-13T11:59:18.472Z,40.38
2023-05-13T12:01:28.460Z,37.81
2023-05-13T12:03:34.024Z,37.38
2023-05-13T12:05:38.991Z,38.14
2023-05-13T12:07:44.789Z,37.32
2023-05-13T12:09:49.646Z,36.41
2023-05-13T12:11:55.652Z,36.97
2023-05-13T12:14:03.702Z,36.17
2023-05-13T12:16:09.117Z,35.30
2023-05-13T12:18:15.636Z,35.57
2023-05-13T12:20:22.283Z,35.59
2023-05-13T12:22:27.324Z,35.41
2023-05-13T12:24:37.068Z,35.80
2023-05-13T12:26:41.989Z,35.51
2023-05-13T12:28:47.538Z,34.71
2023-05-13T12:30:57.104Z,34.55
2023-05-13T12:33:02.154Z,35.14
2023-05-13T12:35:16.058Z,34.43
2023-05-13T12:37:27.529Z,35.16
2023-05-13T12:39:32.677Z,35.57
2023-05-13T12:41:39.178Z,35.29
2023-05-13T12:43:45.280Z,34.40
2023-05-13T12:45:55.183Z,35.51
2023-05-13T12:48:03.654Z,36.75
2023-05-13T12:50:10.542Z,36.02
2023-05-13T12:52:19.134Z,36.10
2023-05-13T12:54:25.966Z,35.94
2023-05-13T12:56:31.253Z,39.58
2023-05-13T12:58:36.013Z,47.14
2023-05-13T13:00:41.786Z,46.83
2023-05-13T13:02:49.075Z,43.66
2023-05-13T13:04:56.746Z,39.26
2023-05-13T13:07:01.708Z,44.92
2023-05-13T13:09:07.796Z,46.16
2023-05-13T13:11:15.104Z,48.64
2023-05-13T13:13:20.017Z,49.22
2023-05-13T13:15:25.470Z,51.31
2023-05-13T13:17:30.770Z,50.72
2023-05-13T13:19:35.692Z,50.45
2023-05-13T13:21:43.265Z,51.42
2023-05-13T13:23:48.255Z,50.99
2023-05-13T13:25:53.143Z,51.41
2023-05-13T13:27:58.112Z,52.14
2023-05-13T13:30:03.125Z,52.45
2023-05-13T13:32:09.099Z,53.10
2023-05-13T13:34:14.733Z,53.01
2023-05-13T13:36:25.706Z,53.05
2023-05-13T13:38:33.190Z,54.00
2023-05-13T13:40:38.811Z,52.53
2023-05-13T13:42:45.259Z,54.25
2023-05-13T13:44:50.206Z,56.00
2023-05-13T13:46:55.419Z,55.29
2023-05-13T13:49:02.138Z,55.60
2023-05-13T13:51:09.025Z,54.11
2023-05-13T13:53:14.936Z,52.99
2023-05-13T13:55:22.816Z,55.67
2023-05-13T13:57:27.837Z,55.94
2023-05-13T13:59:33.108Z,55.42
2023-05-13T14:01:40.289Z,54.46
2023-05-13T14:03:45.451Z,55.12
2023-05-13T14:05:50.355Z,54.12
2023-05-13T14:07:56.142Z,53.19
2023-05-13T14:10:01.613Z,53.61
2023-05-13T14:12:09.655Z,54.02
2023-05-13T14:14:15.480Z,54.00
2023-05-13T14:16:20.347Z,52.74
2023-05-13T14:18:25.892Z,53.72
2023-05-13T14:20:31.552Z,53.94
2023-05-13T14:22:36.631Z,56.33
2023-05-13T14:26:47.041Z,55.86
2023-05-13T14:28:55.196Z,55.75
2023-05-13T14:31:00.246Z,55.76
2023-05-13T14:33:05.426Z,56.38
2023-05-13T14:35:12.150Z,55.04
2023-05-13T14:37:17.578Z,56.82
2023-05-13T14:39:22.620Z,56.58
2023-05-13T14:41:29.462Z,56.64
2023-05-13T14:43:34.503Z,56.37
2023-05-13T14:45:42.140Z,55.19
2023-05-13T14:47:47.566Z,56.47
2023-05-13T14:49:52.666Z,57.91
2023-05-13T14:51:57.608Z,56.83
2023-05-13T14:54:02.555Z,56.23
2023-05-13T14:56:08.194Z,57.41
2023-05-13T14:58:14.186Z,56.70
2023-05-13T15:00:20.284Z,56.33
2023-05-13T15:02:28.654Z,56.67
2023-05-13T15:04:33.743Z,57.43
2023-05-13T15:06:40.384Z,57.30
2023-05-13T15:08:45.426Z,57.50
2023-05-13T15:10:50.469Z,57.00
2023-05-13T15:12:55.289Z,56.79
2023-05-13T15:15:02.609Z,56.76
2023-05-13T15:17:12.176Z,56.81
2023-05-13T15:19:19.707Z,57.12
2023-05-13T15:21:24.949Z,57.92
2023-05-13T15:23:30.111Z,57.37
2023-05-13T15:25:35.153Z,56.56
2023-05-13T15:27:40.046Z,57.57
2023-05-13T15:29:45.506Z,57.59
2023-05-13T15:31:52.991Z,59.07
2023-05-13T15:33:58.509Z,59.21
2023-05-13T15:36:06.105Z,58.90
2023-05-13T15:38:11.210Z,58.78
2023-05-13T15:40:20.088Z,58.86
2023-05-13T15:42:25.297Z,59.27
2023-05-13T15:44:30.304Z,60.08
2023-05-13T15:46:36.064Z,59.02
2023-05-13T15:48:44.141Z,58.87
2023-05-13T15:50:49.147Z,58.48
2023-05-13T15:52:57.486Z,59.23
2023-05-13T15:55:02.447Z,60.23
2023-05-13T15:57:07.720Z,59.24
2023-05-13T15:59:12.666Z,59.35
2023-05-13T16:01:19.003Z,58.85
2023-05-13T16:03:23.919Z,58.86
2023-05-13T16:05:31.771Z,58.82
2023-05-13T16:07:36.814Z,59.19
2023-05-13T16:09:45.369Z,59.16
2023-05-13T16:11:50.433Z,59.17
2023-05-13T16:13:55.359Z,59.36
2023-05-13T16:16:00.298Z,59.71
2023-05-13T16:18:05.187Z,58.90
2023-05-13T16:20:11.945Z,58.96
2023-05-13T16:22:33.868Z,59.05
2023-05-13T16:24:38.893Z,60.50
2023-05-13T16:26:46.652Z,59.89
2023-05-13T16:28:53.110Z,60.38
2023-05-13T16:30:58.728Z,61.56
2023-05-13T16:33:03.901Z,60.40
2023-05-13T16:35:11.788Z,61.01
2023-05-13T16:37:16.826Z,61.81
2023-05-13T16:39:27.855Z,61.89
2023-05-13T16:41:35.615Z,62.41
2023-05-13T16:43:43.877Z,62.09
2023-05-13T16:45:48.920Z,63.44
2023-05-13T16:47:54.282Z,64.09
2023-05-13T16:50:00.482Z,63.62
2023-05-13T16:52:05.687Z,65.02
2023-05-13T16:54:10.780Z,65.00
2023-05-13T16:56:15.807Z,65.08
2023-05-13T16:58:21.233Z,64.96
2023-05-13T17:00:31.293Z,65.81
2023-05-13T17:02:38.575Z,65.69
2023-05-13T17:04:44.037Z,65.04
2023-05-13T17:06:49.222Z,65.41
2023-05-13T17:08:54.193Z,66.32
2023-05-13T17:11:02.033Z,66.63
2023-05-13T17:13:07.051Z,66.38
2023-05-13T17:15:12.616Z,66.71
2023-05-13T17:17:20.404Z,67.43
2023-05-13T17:19:26.117Z,67.60
2023-05-13T17:21:31.347Z,67.77
2023-05-13T17:23:36.803Z,68.16
2023-05-13T17:25:41.920Z,68.18
2023-05-13T17:27:46.831Z,67.94
2023-05-13T17:29:53.946Z,68.55
2023-05-13T17:31:59.310Z,68.97
2023-05-13T17:34:07.175Z,69.27
2023-05-13T17:36:12.339Z,70.02
2023-05-13T17:38:21.139Z,70.53
2023-05-13T17:40:26.932Z,70.18
2023-05-13T17:42:33.289Z,69.15
2023-05-13T17:44:38.299Z,69.63
2023-05-13T17:46:43.954Z,70.14
2023-05-13T17:48:49.400Z,70.13
2023-05-13T17:50:57.286Z,70.15
2023-05-13T17:53:03.734Z,70.72
2023-05-13T17:55:10.068Z,71.25
2023-05-13T17:57:16.056Z,71.62
2023-05-13T17:59:21.101Z,72.10
2023-05-13T18:01:25.986Z,71.98
2023-05-13T18:03:30.961Z,72.07
2023-05-13T18:05:36.277Z,72.37
2023-05-13T18:07:43.974Z,72.87
2023-05-13T18:09:49.994Z,73.21
2023-05-13T18:11:57.795Z,73.80
2023-05-13T18:14:03.041Z,74.24
2023-05-13T18:16:09.462Z,74.23
2023-05-13T18:18:16.372Z,74.13
2023-05-13T18:20:24.791Z,74.13
2023-05-13T18:22:30.081Z,74.72
2023-05-13T18:24:40.001Z,74.77
2023-05-13T18:26:45.339Z,74.84
2023-05-13T18:28:50.434Z,75.26
2023-05-13T18:30:55.488Z,75.88
2023-05-13T18:33:00.401Z,75.70
2023-05-13T18:35:05.940Z,76.02
2023-05-13T18:37:10.731Z,76.57
2023-05-13T18:39:15.866Z,76.42
2023-05-13T18:41:24.473Z,76.24
2023-05-13T18:43:30.815Z,76.20
2023-05-13T18:45:35.783Z,76.08
2023-05-13T18:47:41.243Z,76.26
2023-05-13T18:49:46.251Z,77.27
2023-05-13T18:51:51.274Z,77.34
2023-05-13T18:53:56.574Z,77.44
2023-05-13T18:56:01.594Z,77.29
2023-05-13T18:58:09.226Z,77.65
2023-05-13T19:00:15.309Z,77.31
2023-05-13T19:02:20.645Z,77.38
2023-05-13T19:04:28.914Z,77.62
2023-05-13T19:06:34.375Z,77.81
2023-05-13T19:08:43.469Z,77.65
2023-05-13T19:10:49.966Z,77.57
2023-05-13T19:12:55.426Z,77.40
2023-05-13T19:15:03.237Z,77.71
2023-05-13T19:17:08.813Z,77.57
2023-05-13T19:19:14.099Z,77.30
2023-05-13T19:21:23.448Z,76.97
2023-05-13T19:23:30.013Z,77.11
2023-05-13T19:25:35.486Z,77.21
2023-05-13T19:27:43.958Z,77.42
2023-05-13T19:29:49.320Z,77.75
2023-05-13T19:31:56.888Z,77.65
2023-05-13T19:34:02.907Z,78.42
2023-05-13T19:36:08.305Z,77.98
2023-05-13T19:38:14.373Z,78.54
2023-05-13T19:40:19.598Z,78.10
2023-05-13T19:42:26.610Z,78.22
2023-05-13T19:44:33.283Z,78.95
2023-05-13T19:46:38.258Z,78.61
2023-05-13T19:48:46.371Z,79.42
2023-05-13T19:50:53.570Z,78.84
2023-05-13T19:52:59.010Z,78.57
2023-05-13T19:55:04.642Z,78.54
2023-05-13T19:57:09.975Z,78.19
2023-05-13T19:59:15.355Z,77.73
2023-05-13T20:01:20.661Z,76.95
2023-05-13T20:03:26.755Z,76.62
2023-05-13T20:05:34.759Z,76.16
2023-05-13T20:07:40.079Z,76.45
2023-05-13T20:09:45.385Z,76.38
2023-05-13T20:11:50.235Z,77.08
2023-05-13T20:13:55.295Z,77.65
2023-05-13T20:16:00.307Z,77.35
2023-05-13T20:18:05.480Z,77.92
2023-05-13T20:20:12.008Z,77.88
2023-05-13T20:22:22.755Z,77.96
2023-05-13T20:24:27.723Z,78.30
2023-05-13T20:26:35.110Z,78.05
2023-05-13T20:28:40.119Z,78.31
2023-05-13T20:30:45.781Z,78.40
2023-05-13T20:32:51.235Z,78.42
2023-05-13T20:34:56.256Z,77.96
2023-05-13T20:37:01.753Z,78.50
2023-05-13T20:39:09.871Z,78.56
2023-05-13T20:41:15.329Z,80.73
2023-05-13T20:43:20.390Z,82.27
2023-05-13T20:45:26.741Z,83.04
2023-05-13T20:47:31.767Z,83.75
2023-05-13T20:49:38.750Z,83.71
2023-05-13T20:51:44.204Z,83.09
2023-05-13T20:53:49.526Z,84.19
2023-05-13T20:55:57.210Z,84.44
2023-05-13T20:58:02.044Z,83.41
2023-05-13T21:00:07.890Z,82.46
2023-05-13T21:02:12.911Z,82.71
2023-05-13T21:04:22.138Z,84.06
2023-05-13T21:06:30.242Z,84.94
2023-05-13T21:08:37.281Z,85.03
2023-05-13T21:10:42.050Z,85.16
2023-05-13T21:12:49.753Z,85.79
2023-05-13T21:14:54.786Z,85.52
2023-05-13T21:17:03.226Z,85.43
2023-05-13T21:19:08.415Z,85.47
2023-05-13T21:21:13.791Z,85.65
2023-05-13T21:23:20.536Z,85.48
2023-05-13T21:25:29.358Z,85.23
2023-05-13T21:27:34.697Z,85.21
2023-05-13T21:29:42.504Z,85.40
2023-05-13T21:31:50.616Z,85.19
2023-05-13T21:33:56.170Z,85.82
2023-05-13T21:36:01.264Z,86.01
2023-05-13T21:38:12.030Z,86.38
2023-05-13T21:40:21.601Z,86.49
2023-05-13T21:42:27.295Z,86.30
2023-05-13T21:44:32.209Z,86.08
2023-05-13T21:46:39.753Z,85.77
2023-05-13T21:48:47.027Z,85.33
2023-05-13T21:50:54.846Z,85.24
2023-05-13T21:52:59.892Z,85.37
2023-05-13T21:55:05.047Z,85.54
2023-05-13T21:57:11.367Z,86.19
2023-05-13T21:59:16.399Z,86.79
2023-05-13T22:01:23.175Z,86.13
2023-05-13T22:03:31.418Z,86.96
2023-05-13T22:05:42.382Z,86.63
2023-05-13T22:07:51.298Z,86.05
2023-05-13T22:09:56.360Z,86.69
2023-05-13T22:12:01.337Z,86.57
2023-05-13T22:14:06.413Z,86.42
2023-05-13T22:16:12.222Z,85.93
2023-05-13T22:18:20.153Z,85.86
2023-05-13T22:20:28.673Z,85.69
2023-05-13T22:22:33.755Z,85.54
2023-05-13T22:24:38.522Z,85.73
2023-05-13T22:26:44.351Z,85.41
2023-05-13T22:28:49.413Z,85.36
2023-05-13T22:30:56.068Z,85.16
2023-05-13T22:33:01.092Z,85.29
2023-05-13T22:35:06.330Z,84.98
2023-05-13T22:37:14.222Z,85.08
2023-05-13T22:39:19.482Z,85.17
2023-05-13T22:41:26.562Z,85.14
2023-05-13T22:43:31.598Z,85.25
2023-05-13T22:45:36.837Z,85.39
2023-05-13T22:47:42.023Z,85.02
2023-05-13T22:49:47.023Z,85.03
2023-05-13T22:51:52.383Z,85.20
2023-05-13T22:53:59.913Z,85.15
2023-05-13T22:56:05.890Z,85.05
2023-05-13T22:58:11.004Z,84.83
2023-05-13T23:00:17.612Z,85.27
2023-05-13T23:02:23.828Z,85.09
2023-05-13T23:04:30.231Z,85.34
2023-05-13T23:06:35.332Z,85.57
2023-05-13T23:08:42.770Z,85.15
2023-05-13T23:10:50.524Z,85.01
2023-05-13T23:12:55.983Z,84.94
2023-05-13T23:15:01.245Z,85.29
2023-05-13T23:17:06.317Z,84.75
2023-05-13T23:19:11.624Z,84.65
2023-05-13T23:21:16.901Z,84.75
2023-05-13T23:23:25.226Z,84.83
2023-05-13T23:25:30.251Z,84.64
2023-05-13T23:27:38.051Z,84.89
2023-05-13T23:29:43.095Z,85.01
2023-05-13T23:31:49.381Z,84.94
2023-05-13T23:33:57.339Z,84.81
2023-05-13T23:36:02.358Z,85.06
2023-05-13T23:38:07.310Z,84.65
2023-05-13T23:40:13.961Z,85.03
2023-05-13T23:42:19.603Z,85.23
2023-05-13T23:44:27.110Z,85.21
2023-05-13T23:46:32.327Z,84.91
2023-05-13T23:48:40.637Z,84.75
2023-05-13T23:50:45.680Z,85.02
2023-05-13T23:52:51.503Z,85.11
2023-05-13T23:54:56.696Z,84.98
2023-05-13T23:57:01.600Z,85.10
2023-05-13T23:59:06.664Z,85.03
